Time;durP1;ratioP1;P1;durP2;ratioP2;P2;SDS_P1;SDS_P2;PMS_P1;PMS_P2;Temp;Humidity;BMP_temperature;BMP_pressure;BME280_temperature;BME280_humidity;BME280_pressure;Samples;Min_cycle;Max_cycle;Signal;HPM_P1;HPM_P2
2021/07/28 00:00:10;;;;;;;3.35;1.05;;;;;;;18.75;61.43;99678.41;5124428;27;20031;-55
2021/07/28 00:02:40;;;;;;;2.92;0.80;;;;;;;18.71;61.47;99677.22;5142053;27;20031;-54
2021/07/28 00:05:06;;;;;;;2.95;0.93;;;;;;;18.67;61.69;99678.66;5125398;27;20023;-55
2021/07/28 00:07:32;;;;;;;1.48;0.80;;;;;;;18.65;61.87;99672.72;5142650;27;20035;-54
2021/07/28 00:09:57;;;;;;;4.82;0.88;;;;;;;18.63;61.92;99672.94;5141572;27;20469;-55
2021/07/28 00:12:23;;;;;;;2.50;1.15;;;;;;;18.58;62.12;99670.09;5141634;27;20035;-56
2021/07/28 00:14:49;;;;;;;3.75;1.20;;;;;;;18.50;62.23;99670.34;5120190;27;20034;-58
2021/07/28 00:17:16;;;;;;;4.10;1.20;;;;;;;18.38;62.27;99659.53;5122965;27;20388;-57
2021/07/28 00:25:10;;;;;;;2.72;1.00;;;;;;;18.33;62.39;99660.19;5157576;27;20492;-57
2021/07/28 00:27:36;;;;;;;3.22;1.00;;;;;;;18.34;62.36;99664.47;5173490;27;20026;-55
2021/07/28 00:30:06;;;;;;;3.78;1.00;;;;;;;18.30;62.30;99652.59;5153358;27;20026;-57
2021/07/28 00:32:32;;;;;;;2.35;1.05;;;;;;;18.23;62.44;99653.41;5153218;27;20114;-55
2021/07/28 00:34:57;;;;;;;3.10;1.10;;;;;;;18.31;62.23;99655.03;5168291;27;20034;-55
2021/07/28 00:37:23;;;;;;;2.40;0.95;;;;;;;18.44;61.68;99648.75;5174084;27;20023;-55
2021/07/28 00:39:48;;;;;;;2.28;0.80;;;;;;;18.52;61.48;99639.66;5160576;27;20035;-55
2021/07/28 00:42:14;;;;;;;3.17;0.93;;;;;;;18.57;61.30;99639.81;5125123;27;20030;-54
2021/07/28 00:44:40;;;;;;;1.50;0.70;;;;;;;18.53;61.30;99635.97;5131706;27;20038;-55
2021/07/28 00:47:06;;;;;;;2.20;0.82;;;;;;;18.53;61.62;99635.13;5116134;27;20050;-55
2021/07/28 00:49:31;;;;;;;3.92;0.80;;;;;;;18.54;61.35;99629.56;5133849;27;20045;-55
2021/07/28 00:52:02;;;;;;;3.58;1.40;;;;;;;18.60;61.33;99620.66;5139462;27;20035;-54
2021/07/28 00:54:29;;;;;;;5.90;1.05;;;;;;;18.66;61.31;99613.63;5151180;27;20050;-55
2021/07/28 00:56:55;;;;;;;1.67;0.60;;;;;;;18.62;61.25;99623.13;5149281;27;20362;-54
2021/07/28 00:59:23;;;;;;;2.17;0.93;;;;;;;18.52;61.29;99610.22;5125497;27;20091;-55
2021/07/28 01:01:49;;;;;;;2.38;0.90;;;;;;;18.53;61.20;99603.00;5113201;27;20524;-55
2021/07/28 01:04:15;;;;;;;2.45;1.02;;;;;;;18.58;60.97;99600.50;5113210;27;20027;-55
2021/07/28 01:06:41;;;;;;;3.33;0.77;;;;;;;18.59;60.67;99613.69;5135925;27;20038;-55
2021/07/28 01:09:06;;;;;;;3.45;0.80;;;;;;;18.55;60.94;99608.97;5151226;27;20034;-55
2021/07/28 01:11:35;;;;;;;1.67;0.80;;;;;;;18.44;61.59;99602.47;5150535;27;20041;-55
2021/07/28 01:14:02;;;;;;;5.32;0.90;;;;;;;18.38;61.62;99603.34;5150937;27;20042;-55
2021/07/28 01:16:29;;;;;;;6.97;1.00;;;;;;;18.34;61.54;99600.28;5144863;27;20378;-55
2021/07/28 01:18:55;;;;;;;2.58;1.23;;;;;;;18.27;61.43;99603.00;5152757;27;20027;-55
2021/07/28 01:21:21;;;;;;;1.75;0.70;;;;;;;18.32;61.38;99597.00;5152760;27;20112;-55
2021/07/28 01:23:48;;;;;;;2.75;0.90;;;;;;;18.44;60.95;99589.91;5153420;27;20552;-55
2021/07/28 01:26:15;;;;;;;5.40;0.90;;;;;;;18.36;60.91;99598.22;5172576;27;20034;-55
2021/07/28 01:28:41;;;;;;;2.15;0.70;;;;;;;18.25;61.27;99594.34;5167657;27;20058;-56
2021/07/28 01:31:11;;;;;;;2.92;0.60;;;;;;;18.19;61.37;99581.84;5161198;27;20037;-55
2021/07/28 01:33:38;;;;;;;4.65;1.38;;;;;;;18.28;61.21;99579.75;5175127;27;20039;-55
2021/07/28 01:36:05;;;;;;;4.00;0.90;;;;;;;18.17;61.70;99574.03;5156964;27;20038;-55
2021/07/28 01:38:32;;;;;;;2.08;1.00;;;;;;;18.16;61.36;99568.91;5163429;27;20034;-55
2021/07/28 01:40:59;;;;;;;3.63;0.95;;;;;;;18.12;61.35;99562.38;5177571;27;20122;-55
2021/07/28 01:43:27;;;;;;;2.88;0.75;;;;;;;18.08;61.22;99562.78;5177571;27;20034;-54
2021/07/28 01:45:54;;;;;;;1.60;0.90;;;;;;;18.05;61.40;99562.38;5177685;27;20361;-54
2021/07/28 01:48:20;;;;;;;3.00;0.98;;;;;;;17.99;61.36;99550.69;5159453;27;20038;-55
2021/07/28 01:50:46;;;;;;;2.83;0.80;;;;;;;17.92;61.53;99556.09;5156525;27;20110;-56
2021/07/28 01:53:13;;;;;;;4.13;0.95;;;;;;;17.92;61.55;99556.09;5156547;27;20559;-56
2021/07/28 01:55:39;;;;;;;6.57;1.05;;;;;;;17.95;61.36;99552.97;5156381;27;20039;-55
2021/07/28 01:58:05;;;;;;;1.85;0.90;;;;;;;17.96;61.28;99554.59;5155997;27;20031;-54
2021/07/28 02:00:31;;;;;;;1.73;0.95;;;;;;;18.01;61.01;99553.16;5156257;27;20114;-57
2021/07/28 02:03:03;;;;;;;1.95;0.80;;;;;;;17.92;61.30;99549.91;5156233;27;20041;-55
2021/07/28 02:05:37;;;;;;;5.22;0.90;;;;;;;17.98;61.19;99549.06;5174504;27;20037;-57
2021/07/28 02:08:05;;;;;;;5.72;0.80;;;;;;;17.98;61.03;99533.84;5177072;27;20038;-56
2021/07/28 02:10:32;;;;;;;3.80;1.27;;;;;;;17.95;61.21;99538.78;5176873;27;20498;-56
2021/07/28 02:12:58;;;;;;;3.42;0.90;;;;;;;18.00;60.70;99535.50;5176911;27;20038;-55
2021/07/28 02:15:24;;;;;;;4.68;1.10;;;;;;;18.02;60.92;99528.06;5176806;27;20038;-54
2021/07/28 02:17:51;;;;;;;1.33;0.90;;;;;;;17.96;60.72;99525.19;5159929;27;20117;-54
2021/07/28 02:20:17;;;;;;;3.92;0.90;;;;;;;17.79;61.13;99518.75;5156177;27;20109;-55
2021/07/28 02:22:44;;;;;;;1.98;0.95;;;;;;;17.78;61.43;99511.75;5137258;27;20075;-55
2021/07/28 02:25:10;;;;;;;2.08;0.95;;;;;;;17.83;61.25;99522.63;5155864;27;20030;-55
2021/07/28 02:27:36;;;;;;;2.25;0.90;;;;;;;17.87;61.36;99515.00;5155842;27;20027;-56
2021/07/28 02:30:02;;;;;;;2.50;1.20;;;;;;;17.98;60.53;99504.41;5155703;27;20042;-55
2021/07/28 02:32:28;;;;;;;1.33;0.73;;;;;;;17.84;60.88;99497.53;5155517;27;20038;-55
2021/07/28 02:34:53;;;;;;;4.18;1.00;;;;;;;17.74;61.08;99506.03;5155544;27;20034;-55
2021/07/28 02:37:19;;;;;;;2.28;1.10;;;;;;;17.66;61.61;99499.06;5155068;27;20058;-54
2021/07/28 02:39:45;;;;;;;0.77;0.77;;;;;;;17.67;61.71;99499.91;5175137;27;20555;-54
2021/07/28 02:42:10;;;;;;;2.10;1.00;;;;;;;17.67;61.52;99492.72;5176410;27;20038;-54
2021/07/28 02:44:36;;;;;;;3.22;0.90;;;;;;;17.75;61.67;99491.63;5157648;27;20034;-54
2021/07/28 02:47:02;;;;;;;4.03;1.10;;;;;;;17.74;61.43;99487.31;5176270;27;20147;-55
2021/07/28 02:49:27;;;;;;;3.08;1.15;;;;;;;17.72;61.47;99486.72;5176353;27;20038;-55
2021/07/28 02:51:53;;;;;;;3.75;0.93;;;;;;;17.64;61.61;99479.78;5157385;27;20053;-54
2021/07/28 02:54:21;;;;;;;3.05;1.20;;;;;;;17.59;61.94;99474.25;5176079;27;20034;-56
2021/07/28 02:56:48;;;;;;;2.63;1.20;;;;;;;17.63;62.01;99472.78;5176230;27;20109;-54
2021/07/28 02:59:13;;;;;;;3.28;2.00;;;;;;;17.68;61.69;99464.94;5176016;27;20031;-55
2021/07/28 03:01:39;;;;;;;2.17;1.17;;;;;;;17.63;61.70;99466.63;5175975;27;20042;-54
2021/07/28 03:04:05;;;;;;;2.22;1.20;;;;;;;17.30;62.51;99466.59;5176328;27;20027;-54
2021/07/28 03:06:31;;;;;;;3.60;1.65;;;;;;;17.48;62.63;99454.38;5175859;27;20472;-54
2021/07/28 03:08:57;;;;;;;4.38;1.27;;;;;;;17.56;62.56;99453.31;5176049;27;20026;-55
2021/07/28 03:11:23;;;;;;;5.18;1.50;;;;;;;17.68;61.85;99451.59;5175775;27;20034;-54
2021/07/28 03:13:48;;;;;;;2.95;1.27;;;;;;;17.73;61.78;99454.44;5157712;27;20037;-54
2021/07/28 03:16:14;;;;;;;2.10;1.30;;;;;;;17.76;61.91;99457.72;5175680;27;20498;-55
2021/07/28 03:18:40;;;;;;;1.98;1.08;;;;;;;17.78;61.82;99458.28;5160710;27;20090;-55
2021/07/28 03:21:06;;;;;;;2.05;1.17;;;;;;;17.81;61.69;99453.34;5171871;27;20669;-54
2021/07/28 03:23:32;;;;;;;3.00;1.10;;;;;;;17.79;61.96;99463.44;5137208;27;20043;-55
2021/07/28 03:25:58;;;;;;;1.65;1.17;;;;;;;17.71;62.41;99453.81;5128376;27;20098;-54
2021/07/28 03:28:24;;;;;;;3.78;1.35;;;;;;;17.63;62.75;99443.38;5154666;27;20076;-56
2021/07/28 03:30:50;;;;;;;3.25;1.30;;;;;;;17.61;62.98;99448.94;5154766;27;20033;-55
2021/07/28 03:33:17;;;;;;;2.13;1.30;;;;;;;17.61;62.92;99448.94;5154444;27;20430;-54
2021/07/28 03:35:43;;;;;;;3.35;1.23;;;;;;;17.59;63.09;99440.34;5168702;27;20030;-54
2021/07/28 03:38:09;;;;;;;2.28;1.02;;;;;;;17.53;63.27;99437.72;5175288;27;20061;-55
2021/07/28 03:40:34;;;;;;;2.28;1.20;;;;;;;17.51;63.55;99435.25;5175138;27;20037;-55
2021/07/28 03:43:00;;;;;;;2.42;1.20;;;;;;;17.54;63.69;99436.66;5175294;27;20034;-55
2021/07/28 03:45:26;;;;;;;3.42;1.42;;;;;;;17.59;63.74;99432.34;5175075;27;20027;-56
2021/07/28 03:47:51;;;;;;;2.42;1.40;;;;;;;17.58;63.72;99427.19;5174983;27;20081;-56
2021/07/28 03:50:17;;;;;;;4.07;1.20;;;;;;;17.51;64.09;99426.41;5174824;27;20042;-56
2021/07/28 03:52:43;;;;;;;1.60;1.20;;;;;;;17.34;65.11;99422.41;5161014;27;20038;-55
2021/07/28 03:55:10;;;;;;;2.40;1.67;;;;;;;17.27;65.31;99420.81;5154053;27;20042;-55
2021/07/28 03:57:36;;;;;;;1.88;1.30;;;;;;;17.25;65.48;99422.88;5154128;27;20037;-55
2021/07/28 04:00:03;;;;;;;2.00;1.33;;;;;;;17.32;65.60;99427.16;5154054;27;20035;-55
2021/07/28 04:02:30;;;;;;;3.67;1.30;;;;;;;17.31;65.61;99424.69;5153798;27;20095;-56
2021/07/28 04:04:56;;;;;;;1.90;0.98;;;;;;;17.30;65.77;99421.19;5154015;27;20038;-55
2021/07/28 04:07:21;;;;;;;4.70;1.13;;;;;;;17.18;66.21;99418.41;5135216;27;20441;-56
2021/07/28 04:09:47;;;;;;;1.88;1.38;;;;;;;17.20;66.57;99413.66;5153825;27;20035;-56
2021/07/28 04:12:13;;;;;;;1.10;1.00;;;;;;;17.09;66.82;99409.81;5153879;27;20031;-55
2021/07/28 04:14:39;;;;;;;2.15;1.00;;;;;;;17.13;66.76;99404.88;5135998;27;20388;-55
2021/07/28 04:17:05;;;;;;;1.42;0.93;;;;;;;17.21;66.38;99409.13;5135151;27;20523;-55
2021/07/28 04:19:31;;;;;;;1.67;1.10;;;;;;;17.30;66.14;99404.34;5162102;27;20057;-56
2021/07/28 04:21:57;;;;;;;2.35;1.10;;;;;;;17.30;65.85;99405.19;5163134;27;20063;-56
2021/07/28 04:24:23;;;;;;;1.50;1.02;;;;;;;17.15;66.72;99412.66;5114600;27;20035;-56
2021/07/28 04:26:48;;;;;;;1.15;1.02;;;;;;;17.14;66.86;99401.16;5154605;27;20041;-55
2021/07/28 04:29:14;;;;;;;2.70;1.33;;;;;;;17.03;67.50;99401.78;5174285;27;20035;-55
2021/07/28 04:31:40;;;;;;;2.40;1.25;;;;;;;16.99;67.56;99407.56;5174455;27;20408;-55
2021/07/28 04:34:05;;;;;;;1.77;1.20;;;;;;;16.95;67.80;99406.34;5173924;27;20150;-55
2021/07/28 04:36:31;;;;;;;4.10;1.10;;;;;;;17.01;67.47;99402.00;5153297;27;20046;-55
2021/07/28 04:38:59;;;;;;;2.78;1.20;;;;;;;16.89;68.12;99404.53;5153299;27;20034;-56
2021/07/28 04:41:25;;;;;;;1.15;0.88;;;;;;;16.85;68.29;99406.00;5153202;27;20117;-56
2021/07/28 04:43:50;;;;;;;4.90;1.25;;;;;;;16.92;68.41;99403.28;5153234;27;20111;-56
2021/07/28 04:46:17;;;;;;;1.98;1.13;;;;;;;17.02;67.87;99392.97;5153156;27;20031;-56
2021/07/28 04:48:43;;;;;;;2.83;1.33;;;;;;;16.99;67.96;99401.41;5134634;27;20404;-56
2021/07/28 04:51:09;;;;;;;2.17;1.05;;;;;;;16.94;67.99;99399.38;5153043;27;20042;-56
2021/07/28 04:53:35;;;;;;;2.22;0.90;;;;;;;16.93;68.01;99396.94;5173844;27;20045;-56
2021/07/28 04:56:00;;;;;;;1.30;0.98;;;;;;;16.79;68.59;99390.81;5173840;27;20049;-56
2021/07/28 04:58:26;;;;;;;2.15;0.80;;;;;;;16.62;69.09;99385.97;5173545;27;20026;-55
2021/07/28 05:00:53;;;;;;;1.40;0.90;;;;;;;16.64;69.06;99386.56;5173811;27;20488;-55
2021/07/28 05:03:19;;;;;;;1.35;0.90;;;;;;;16.63;68.84;99382.25;5173841;27;20603;-55
2021/07/28 05:05:45;;;;;;;1.98;0.82;;;;;;;16.52;69.47;99382.91;5155282;27;20026;-56
2021/07/28 05:08:11;;;;;;;1.92;1.00;;;;;;;16.54;69.53;99373.69;5173835;27;20057;-56
2021/07/28 05:10:37;;;;;;;1.67;0.80;;;;;;;16.52;69.41;99377.56;5158131;27;20044;-55
2021/07/28 05:13:04;;;;;;;1.13;1.00;;;;;;;16.40;69.82;99377.41;5132811;28;20046;-56
2021/07/28 05:15:30;;;;;;;2.85;0.90;;;;;;;16.39;69.89;99381.91;5132198;28;20065;-56
2021/07/28 05:17:56;;;;;;;1.30;0.80;;;;;;;16.39;70.04;99383.78;5132375;28;20062;-55
2021/07/28 05:20:21;;;;;;;3.10;0.77;;;;;;;16.42;69.87;99378.81;5132091;28;20122;-56
2021/07/28 05:22:51;;;;;;;1.55;1.15;;;;;;;16.47;69.66;99386.19;5132390;28;20378;-55
2021/07/28 05:25:17;;;;;;;3.88;0.80;;;;;;;16.47;69.63;99386.19;5132204;27;20092;-55
2021/07/28 05:27:43;;;;;;;2.05;0.60;;;;;;;16.51;69.61;99379.44;5155064;27;20038;-55
2021/07/28 05:30:10;;;;;;;4.70;0.80;;;;;;;16.51;69.46;99373.28;5173617;27;20034;-55
2021/07/28 05:32:35;;;;;;;2.20;0.80;;;;;;;16.37;70.08;99370.66;5173494;27;20504;-55
2021/07/28 05:35:02;;;;;;;2.13;1.10;;;;;;;16.34;70.27;99369.19;5173511;27;20184;-54
2021/07/28 05:37:28;;;;;;;1.95;0.80;;;;;;;16.45;69.97;99366.94;5155062;27;20535;-55
2021/07/28 05:39:55;;;;;;;1.17;0.70;;;;;;;16.42;69.88;99367.34;5173490;27;20034;-55
2021/07/28 05:42:20;;;;;;;1.20;0.77;;;;;;;16.44;70.08;99368.78;5173484;27;20038;-55
2021/07/28 05:44:46;;;;;;;2.50;0.70;;;;;;;16.52;69.81;99362.38;5173452;27;20050;-56
2021/07/28 05:47:12;;;;;;;2.20;0.60;;;;;;;16.48;69.80;99356.66;5155099;27;20038;-55
2021/07/28 05:49:38;;;;;;;4.57;0.80;;;;;;;16.45;69.99;99362.41;5173321;27;20034;-55
2021/07/28 05:52:04;;;;;;;1.77;0.80;;;;;;;16.54;69.55;99362.19;5173139;27;20063;-55
2021/07/28 05:54:30;;;;;;;1.15;0.75;;;;;;;16.52;69.82;99364.22;5154852;27;20041;-55
2021/07/28 05:56:55;;;;;;;1.08;0.73;;;;;;;16.61;69.23;99352.31;5154869;27;20034;-55
2021/07/28 05:59:21;;;;;;;1.92;0.98;;;;;;;16.57;69.35;99356.41;5156979;27;20030;-55
2021/07/28 06:01:47;;;;;;;2.10;0.70;;;;;;;16.64;69.18;99351.06;5131737;28;20035;-55
2021/07/28 06:04:13;;;;;;;1.50;0.80;;;;;;;16.58;69.20;99355.41;5131638;28;20042;-55
2021/07/28 06:06:39;;;;;;;2.22;0.65;;;;;;;16.57;69.43;99351.91;5131645;28;20035;-55
2021/07/28 06:09:05;;;;;;;3.60;0.80;;;;;;;16.55;69.33;99353.97;5131762;28;20047;-55
2021/07/28 06:11:30;;;;;;;1.75;0.70;;;;;;;16.53;69.72;99357.88;5133505;27;20039;-55
2021/07/28 06:13:56;;;;;;;5.20;0.82;;;;;;;16.46;69.96;99358.72;5135807;27;20447;-55
2021/07/28 06:16:22;;;;;;;3.05;0.75;;;;;;;16.38;70.46;99348.28;5135323;27;20038;-55
2021/07/28 06:18:48;;;;;;;6.00;0.80;;;;;;;16.34;70.59;99355.88;5135547;27;20068;-55
2021/07/28 06:21:14;;;;;;;1.10;0.55;;;;;;;16.34;70.79;99357.75;5135138;27;20035;-55
2021/07/28 06:23:39;;;;;;;1.95;0.63;;;;;;;16.30;71.05;99360.00;5116994;27;20050;-55
2021/07/28 06:26:05;;;;;;;2.78;0.75;;;;;;;16.27;71.27;99341.75;5149227;27;20031;-55
2021/07/28 06:28:33;;;;;;;1.52;0.65;;;;;;;16.30;71.15;99343.16;5176719;27;20480;-55
2021/07/28 06:30:58;;;;;;;3.83;1.30;;;;;;;16.24;71.46;99332.31;5176741;27;20510;-55
2021/07/28 06:33:24;;;;;;;2.83;1.05;;;;;;;16.19;71.70;99334.81;5176492;27;20035;-56
2021/07/28 06:35:51;;;;;;;2.58;0.70;;;;;;;16.18;72.13;99329.69;5176530;27;20038;-56
2021/07/28 06:38:17;;;;;;;2.47;0.80;;;;;;;16.23;71.71;99327.19;5176522;27;20082;-56
2021/07/28 06:40:43;;;;;;;3.15;0.77;;;;;;;16.24;71.76;99318.19;5176689;27;20121;-56
2021/07/28 06:43:10;;;;;;;1.15;0.60;;;;;;;16.22;71.71;99314.88;5176449;27;20547;-56
2021/07/28 06:45:35;;;;;;;1.50;0.60;;;;;;;16.23;71.66;99305.84;5176259;27;20034;-56
2021/07/28 06:48:02;;;;;;;2.95;0.80;;;;;;;16.13;71.87;99314.31;5148176;27;20151;-55
2021/07/28 06:50:28;;;;;;;1.73;0.60;;;;;;;16.14;71.87;99318.59;5134499;27;20061;-55
2021/07/28 06:52:54;;;;;;;3.40;0.82;;;;;;;16.15;71.88;99330.91;5134534;27;20043;-56
2021/07/28 06:55:20;;;;;;;3.53;0.90;;;;;;;16.17;72.13;99325.34;5116300;27;20043;-55
2021/07/28 06:57:46;;;;;;;3.50;0.80;;;;;;;16.14;72.05;99326.59;5134520;27;20033;-55
2021/07/28 07:00:12;;;;;;;4.10;0.95;;;;;;;16.16;71.78;99313.06;5134508;27;20031;-55
2021/07/28 07:02:37;;;;;;;1.17;0.50;;;;;;;16.11;71.98;99313.69;5134243;27;20110;-55
2021/07/28 07:05:04;;;;;;;2.63;0.70;;;;;;;16.10;71.24;99320.88;5134622;27;20443;-55
2021/07/28 07:07:30;;;;;;;4.93;1.33;;;;;;;16.07;71.92;99321.28;5134596;27;20405;-55
2021/07/28 07:09:56;;;;;;;0.82;0.60;;;;;;;16.11;72.15;99321.69;5137075;27;20027;-55
2021/07/28 07:12:22;;;;;;;0.68;0.50;;;;;;;16.16;71.98;99316.56;5134374;27;20031;-55
2021/07/28 07:14:48;;;;;;;0.60;0.60;;;;;;;16.16;71.73;99316.56;5146857;27;20404;-55
2021/07/28 07:17:14;;;;;;;2.75;0.50;;;;;;;16.14;72.27;99317.78;5136132;27;20038;-55
2021/07/28 07:19:40;;;;;;;2.25;0.70;;;;;;;16.15;72.54;99317.56;5154835;27;20038;-55
2021/07/28 07:22:06;;;;;;;1.33;0.50;;;;;;;16.07;73.55;99318.63;5120929;27;20034;-55
2021/07/28 07:24:32;;;;;;;5.55;0.50;;;;;;;16.09;73.04;99316.56;5115726;27;20099;-55
2021/07/28 07:26:58;;;;;;;2.92;0.55;;;;;;;16.11;72.96;99311.03;5163138;27;20034;-54
2021/07/28 07:29:24;;;;;;;1.70;0.60;;;;;;;16.15;72.85;99322.09;5175477;27;20030;-55
2021/07/28 07:31:49;;;;;;;3.70;0.88;;;;;;;16.13;72.84;99316.97;5175299;27;20109;-55
2021/07/28 07:34:15;;;;;;;3.72;1.10;;;;;;;16.04;73.20;99324.38;5159234;27;20053;-55
2021/07/28 07:36:41;;;;;;;2.25;0.60;;;;;;;16.09;73.34;99321.91;5126125;27;20026;-55
2021/07/28 07:39:07;;;;;;;2.42;0.85;;;;;;;16.08;73.10;99322.09;5146255;27;20034;-54
2021/07/28 07:41:33;;;;;;;3.17;1.08;;;;;;;16.02;73.47;99328.28;5135808;27;20126;-55
2021/07/28 07:44:00;;;;;;;3.10;0.70;;;;;;;16.08;73.51;99322.94;5153962;27;20110;-55
2021/07/28 07:46:26;;;;;;;1.90;0.55;;;;;;;16.10;73.13;99317.41;5154272;27;20026;-55
2021/07/28 07:48:52;;;;;;;3.65;1.15;;;;;;;16.10;72.63;99315.53;5154295;27;20087;-55
2021/07/28 07:51:18;;;;;;;3.45;1.25;;;;;;;15.87;72.83;99323.97;5153966;27;20042;-55
2021/07/28 07:53:44;;;;;;;3.97;0.60;;;;;;;15.99;72.35;99327.66;5133517;27;20038;-55
2021/07/28 07:56:10;;;;;;;5.65;1.02;;;;;;;15.91;72.31;99329.69;5118533;27;20393;-56
2021/07/28 07:58:35;;;;;;;4.45;0.77;;;;;;;16.03;71.90;99327.25;5151805;27;20388;-55
2021/07/28 08:01:11;;;;;;;2.70;0.70;;;;;;;16.10;71.60;99325.41;5143905;27;20151;-56
2021/07/28 08:03:37;;;;;;;1.40;0.50;;;;;;;16.07;71.17;99317.81;5132497;27;20039;-55
2021/07/28 08:06:03;;;;;;;3.78;0.90;;;;;;;16.15;70.87;99330.91;5137470;27;20114;-55
2021/07/28 08:08:29;;;;;;;1.58;0.63;;;;;;;16.26;71.22;99320.63;5153241;27;20127;-55
2021/07/28 08:10:56;;;;;;;2.63;0.70;;;;;;;16.21;71.08;99310.59;5152755;27;20038;-56
2021/07/28 08:13:22;;;;;;;4.55;0.70;;;;;;;16.22;71.23;99328.22;5153235;27;20037;-56
2021/07/28 08:15:48;;;;;;;9.55;0.68;;;;;;;16.24;70.75;99324.31;5149319;27;20500;-55
2021/07/28 08:18:14;;;;;;;1.35;0.70;;;;;;;16.31;70.29;99324.28;5152546;27;20026;-55
2021/07/28 08:20:39;;;;;;;2.47;0.63;;;;;;;16.36;70.00;99332.50;5153001;27;20031;-57
2021/07/28 08:23:05;;;;;;;2.90;0.68;;;;;;;16.44;69.86;99339.44;5152849;27;20412;-56
2021/07/28 08:25:31;;;;;;;2.88;0.57;;;;;;;16.35;70.09;99338.88;5136399;27;20034;-55
2021/07/28 08:27:57;;;;;;;1.35;0.45;;;;;;;16.29;69.85;99341.53;5152846;27;20031;-56
2021/07/28 08:30:22;;;;;;;5.03;0.50;;;;;;;16.27;69.96;99341.75;5152724;27;20034;-56
2021/07/28 08:32:48;;;;;;;5.50;0.47;;;;;;;16.30;69.57;99341.34;5152184;27;20042;-56
2021/07/28 08:35:34;;;;;;;2.03;0.50;;;;;;;16.36;69.10;99342.34;5136699;27;20046;-56
2021/07/28 08:37:59;;;;;;;1.17;0.30;;;;;;;16.37;69.35;99344.78;5152770;27;20038;-58
2021/07/28 08:40:25;;;;;;;6.57;0.63;;;;;;;16.40;69.43;99343.56;5152593;27;20031;-56
2021/07/28 08:42:54;;;;;;;3.60;0.45;;;;;;;16.52;69.33;99342.88;5151975;27;20095;-55
2021/07/28 08:45:20;;;;;;;1.75;0.40;;;;;;;16.50;69.64;99335.09;5146108;27;20110;-54
2021/07/28 08:47:46;;;;;;;1.75;0.45;;;;;;;16.45;70.55;99341.06;5150083;27;20038;-56
2021/07/28 08:50:14;;;;;;;2.53;0.30;;;;;;;16.41;70.41;99345.19;5134080;27;20038;-56
2021/07/28 08:52:40;;;;;;;1.17;0.32;;;;;;;16.43;70.14;99339.66;5152258;27;20049;-55
2021/07/28 08:55:07;;;;;;;3.35;0.50;;;;;;;16.41;69.46;99349.69;5152477;27;20094;-55
2021/07/28 08:57:35;;;;;;;1.90;0.40;;;;;;;16.46;69.08;99339.22;5133850;27;20030;-55
2021/07/28 09:00:03;;;;;;;1.15;0.30;;;;;;;16.52;69.43;99340.22;5152577;27;20035;-55
2021/07/28 09:02:29;;;;;;;4.45;0.50;;;;;;;16.53;69.42;99336.53;5152283;27;20059;-55
2021/07/28 09:04:55;;;;;;;4.00;0.75;;;;;;;16.58;69.42;99331.41;5152223;27;20042;-55
2021/07/28 09:07:22;;;;;;;2.63;0.35;;;;;;;16.60;69.62;99335.47;5150593;27;20035;-57
2021/07/28 09:09:53;;;;;;;0.35;0.30;;;;;;;16.65;69.34;99337.50;5152411;27;20090;-55
2021/07/28 09:12:20;;;;;;;2.20;0.30;;;;;;;16.63;69.08;99339.56;5151357;27;20031;-55
2021/07/28 09:14:55;;;;;;;11.07;0.60;;;;;;;16.67;69.11;99334.63;5151891;27;20049;-56
2021/07/28 09:17:26;;;;;;;3.50;0.30;;;;;;;16.68;68.48;99341.59;5152341;27;20030;-56
2021/07/28 09:19:53;;;;;;;5.57;0.30;;;;;;;16.67;68.14;99335.47;5162465;27;20035;-55
2021/07/28 09:22:19;;;;;;;0.60;0.43;;;;;;;16.68;68.19;99329.09;5161468;27;20101;-55
2021/07/28 09:25:06;;;;;;;4.20;0.40;;;;;;;16.72;67.96;99326.81;5172862;27;20034;-56
2021/07/28 09:27:52;;;;;;;1.80;0.30;;;;;;;16.71;66.76;99319.81;5155124;27;20030;-55
2021/07/28 09:30:30;;;;;;;0.47;0.30;;;;;;;16.73;67.39;99326.59;5133793;27;20034;-55
2021/07/28 09:32:58;;;;;;;1.00;0.20;;;;;;;16.80;67.58;99312.41;5151928;27;20035;-55
2021/07/28 09:35:52;;;;;;;3.20;0.50;;;;;;;16.83;67.66;99328.00;5163537;27;20035;-56
2021/07/28 09:38:32;;;;;;;5.13;0.32;;;;;;;16.85;67.59;99324.06;5152172;27;20389;-56
2021/07/28 09:41:21;;;;;;;2.05;0.30;;;;;;;16.90;67.28;99327.97;5151652;27;20033;-55
2021/07/28 09:43:48;;;;;;;1.42;0.25;;;;;;;16.83;65.59;99325.31;5133787;27;20046;-55
2021/07/28 09:46:29;;;;;;;2.47;0.40;;;;;;;16.88;66.30;99322.84;5154502;27;20113;-55
2021/07/28 09:48:56;;;;;;;1.42;0.38;;;;;;;16.92;66.22;99326.72;5156126;27;20041;-54
2021/07/28 09:51:26;;;;;;;0.80;0.40;;;;;;;16.96;66.11;99321.78;5142996;27;20054;-55
2021/07/28 09:53:57;;;;;;;0.38;0.30;;;;;;;16.98;66.01;99336.53;5176868;27;20046;-55
2021/07/28 09:56:50;;;;;;;0.55;0.30;;;;;;;17.02;64.49;99314.75;5171901;27;20115;-56
2021/07/28 09:59:16;;;;;;;0.73;0.20;;;;;;;16.98;62.57;99327.69;5151547;27;20057;-54
2021/07/28 10:01:44;;;;;;;0.57;0.20;;;;;;;17.06;63.84;99315.94;5152287;27;20492;-55
2021/07/28 10:04:32;;;;;;;3.13;0.40;;;;;;;17.11;64.24;99316.16;5128004;27;20797;-56
2021/07/28 10:07:00;;;;;;;0.60;0.20;;;;;;;17.10;64.22;99342.00;5145396;27;20038;-55
2021/07/28 10:09:42;;;;;;;2.25;0.45;;;;;;;17.10;63.77;99334.00;5138994;27;20035;-56
2021/07/28 10:12:08;;;;;;;1.85;0.40;;;;;;;17.08;62.89;99332.59;5118718;27;20511;-55
2021/07/28 10:14:35;;;;;;;0.20;0.20;;;;;;;17.05;61.76;99341.00;5149240;27;20042;-55
2021/07/28 10:17:02;;;;;;;0.80;0.28;;;;;;;17.03;62.16;99338.56;5148464;27;20034;-55
2021/07/28 10:19:29;;;;;;;1.75;0.30;;;;;;;17.07;62.92;99330.94;5170027;27;20135;-56
2021/07/28 10:21:55;;;;;;;1.75;0.52;;;;;;;17.14;63.43;99322.94;5152645;27;20031;-56
2021/07/28 10:24:20;;;;;;;3.15;0.40;;;;;;;17.19;63.60;99323.06;5127385;27;20098;-55
2021/07/28 10:26:51;;;;;;;3.00;0.68;;;;;;;17.23;64.05;99326.97;5145119;27;20034;-55
2021/07/28 10:29:18;;;;;;;1.80;0.50;;;;;;;17.23;63.94;99327.75;5149607;27;20037;-55
2021/07/28 10:31:49;;;;;;;0.35;0.30;;;;;;;17.26;63.81;99323.88;5161779;27;20074;-55
2021/07/28 10:34:23;;;;;;;6.63;0.40;;;;;;;17.27;63.06;99320.16;5176078;27;20037;-55
2021/07/28 10:36:49;;;;;;;1.45;0.40;;;;;;;17.28;61.87;99326.31;5168845;27;20144;-55
2021/07/28 10:39:39;;;;;;;2.15;0.38;;;;;;;17.31;62.01;99331.22;5155026;27;20030;-55
2021/07/28 10:42:16;;;;;;;4.35;0.47;;;;;;;17.33;62.36;99327.28;5140412;27;20052;-55
2021/07/28 10:44:57;;;;;;;1.05;0.30;;;;;;;17.35;62.25;99335.09;5155041;27;20026;-55
2021/07/28 10:47:52;;;;;;;1.98;0.30;;;;;;;17.36;61.20;99328.69;5118830;27;20450;-56
2021/07/28 10:50:28;;;;;;;2.67;0.60;;;;;;;17.38;60.79;99326.63;5134090;27;20039;-55
2021/07/28 10:52:59;;;;;;;0.90;0.20;;;;;;;17.39;60.97;99324.78;5133667;27;20094;-55
2021/07/28 10:55:32;;;;;;;2.50;0.30;;;;;;;17.41;61.15;99334.22;5133951;27;20108;-56
2021/07/28 10:58:11;;;;;;;1.73;0.50;;;;;;;17.41;61.09;99341.41;5148916;27;20057;-56
2021/07/28 11:00:37;;;;;;;2.50;0.30;;;;;;;17.40;60.38;99342.44;5154516;27;20047;-55
2021/07/28 11:03:04;;;;;;;3.80;0.63;;;;;;;17.31;57.55;99348.03;5154384;27;20057;-55
2021/07/28 11:05:38;;;;;;;3.08;0.30;;;;;;;17.29;58.22;99336.78;5154714;27;20560;-55
2021/07/28 11:08:06;;;;;;;1.17;0.30;;;;;;;17.35;58.74;99341.25;5154230;27;20038;-55
2021/07/28 11:10:49;;;;;;;3.70;0.40;;;;;;;17.40;58.93;99337.09;5154274;27;20050;-55
2021/07/28 11:13:18;;;;;;;4.65;0.80;;;;;;;17.54;61.72;99329.81;5154332;27;20524;-56
2021/07/28 11:15:59;;;;;;;0.57;0.22;;;;;;;17.56;59.95;99339.25;5154761;27;20029;-56
2021/07/28 11:18:44;;;;;;;3.97;0.47;;;;;;;17.55;59.27;99347.50;5153991;27;20041;-55
2021/07/28 11:21:26;;;;;;;4.40;0.50;;;;;;;17.58;61.59;99345.19;5153988;27;20035;-56
2021/07/28 11:24:04;;;;;;;1.92;0.45;;;;;;;17.55;61.67;99360.84;5172029;27;20038;-56
2021/07/28 11:26:34;;;;;;;3.05;0.30;;;;;;;17.50;61.83;99358.00;5156593;27;20035;-55
2021/07/28 11:29:14;;;;;;;4.22;0.43;;;;;;;17.50;62.11;99352.66;5154619;27;20054;-56
2021/07/28 11:31:42;;;;;;;4.95;1.00;;;;;;;17.57;62.72;99346.22;5153526;27;20034;-56
2021/07/28 11:34:21;;;;;;;10.65;0.55;;;;;;;17.58;62.25;99334.50;5154336;27;20034;-56
2021/07/28 11:37:19;;;;;;;4.90;0.68;;;;;;;17.54;61.88;99337.81;5153516;27;20114;-55
2021/07/28 11:39:49;;;;;;;2.45;0.55;;;;;;;17.58;62.68;99342.50;5153702;27;20043;-56
2021/07/28 11:42:15;;;;;;;1.08;0.50;;;;;;;17.61;62.58;99354.63;5153351;27;20043;-56